Airfield :
LOGIN :

Register | Disclaimer

   EN    FR    IT 

 










Legend :    VFR   Marginal VFR   IFR   Intensive IFR   Very Intensive IFR
Visi :
Ceiling :
>= 8 km
>= 3000ft
5 to 8 km
1000 to 3000 ft
1500m to 5 km
500 to 1000 ft
800 to 1500m
200 to 500 ft
< 800m
< 200 ft
Symbols :   Thunderstorms  Fog  Heavy snow  Heavy precipitations  Wind > 20 kt
SIGMETs :     Misc.  Thunderstorms  Icing  Turbulence  Mountain Waves  Volcanic Ashes






- Airport Elevation : 80 ft
- IATA code : LPL


EGGP - Liverpool John Lennon

CURRENT METAR :
  • 131050Z 27024KT 7000 -SHRA SCT017 BKN023 07/06 Q0977

EXPIRED METARs :
  • 131020Z 27024KT 6000 -SHRA FEW007 SCT013 BKN017 07/07 Q0977
  • 130950Z 27023KT 9999 -SHRA FEW014 SCT025 BKN035 07/07 Q0977
  • 130920Z 27023KT 9999 VCSH FEW014 SCT035 07/07 Q0976
  • 130850Z 27022KT 9999 FEW010 SCT014 07/06 Q0976
  • 130820Z 29021KT 6000 -RA FEW010 BKN015 OVC022 07/07 Q0975

TAF TAF EGGP
Valid from the 13 at 06:00 until the 14 at 06:00 UTC


130501Z 1306/1406 26017KT 9999 SCT025
TEMPO 1306/1406 27020G30KT 6000 SHRA BKN012
PROB30
TEMPO 1306/1406 3000 +SHRA BKN009
ATIS : +44 151 907 2000 (option 5 or ext 5150)
Met : +44 871 750 5150



MET'MAP, your aeronautical weather chart ! - Copyright ORBIFLY December 2007 - Disclaimer

ORBIFLY MET'MAP TEAM :

Programming & Development : Alexandra Zaïnal
Concept & original design : Baudouin d'Aumeries
Assistance for programming : Marc-Olivier Méhu
Technical & hardware support : Manuel Goepfert

Contact : metmap@orbifly.com




SOURCES & CREDITS :

   NOAA